Time;durP1;ratioP1;P1;durP2;ratioP2;P2;SDS_P1;SDS_P2;PMS_P1;PMS_P2;Temp;Humidity;BMP_temperature;BMP_pressure;BME280_temperature;BME280_humidity;BME280_pressure;Samples;Min_cycle;Max_cycle;Signal;HPM_P1;HPM_P2
2022/08/17 00:02:20;;;;;;;1999.90;999.90;;;24.50;70.30;;;;;;5013460;28;20169;-66
2022/08/17 00:04:45;;;;;;;1999.90;999.90;;;24.40;71.90;;;;;;5013492;28;20170;-66
2022/08/17 00:07:11;;;;;;;1999.90;999.90;;;24.40;73.60;;;;;;5013026;28;21009;-66
2022/08/17 00:09:37;;;;;;;1999.90;999.90;;;24.40;76.10;;;;;;5012448;28;20306;-66
2022/08/17 00:12:03;;;;;;;1999.90;999.90;;;24.40;78.40;;;;;;5013228;28;20184;-65
2022/08/17 00:14:29;;;;;;;1999.90;999.90;;;24.40;80.00;;;;;;5013426;28;20420;-66
2022/08/17 00:16:55;;;;;;;1999.90;999.90;;;24.40;81.50;;;;;;5012711;28;20971;-65
2022/08/17 00:19:22;;;;;;;1999.90;999.90;;;24.40;82.90;;;;;;5013186;28;20252;-66
2022/08/17 00:21:51;;;;;;;1999.90;999.90;;;24.40;84.50;;;;;;5013083;28;20256;-66
2022/08/17 00:24:18;;;;;;;1999.90;999.90;;;24.40;88.20;;;;;;5013081;28;20495;-66
2022/08/17 00:26:44;;;;;;;1999.90;999.90;;;24.40;90.30;;;;;;5012883;28;20959;-65
2022/08/17 00:29:10;;;;;;;1999.90;999.90;;;24.40;90.90;;;;;;5013030;28;20444;-66
2022/08/17 00:31:36;;;;;;;1999.90;999.90;;;24.40;91.40;;;;;;5012905;28;20436;-66
2022/08/17 00:34:04;;;;;;;1999.90;999.90;;;24.40;91.90;;;;;;5012894;28;20164;-67
2022/08/17 00:36:29;;;;;;;1999.90;999.90;;;24.30;92.50;;;;;;5012564;28;20804;-66
2022/08/17 00:38:55;;;;;;;1999.90;999.90;;;24.30;93.70;;;;;;5012814;28;20378;-67
2022/08/17 00:41:24;;;;;;;1999.90;999.90;;;24.30;94.80;;;;;;5012742;28;20289;-67
2022/08/17 00:43:57;;;;;;;1999.90;999.90;;;24.20;96.20;;;;;;5012910;28;20180;-66
2022/08/17 00:46:27;;;;;;;1999.90;999.90;;;24.20;97.80;;;;;;5012421;28;20374;-66
2022/08/17 00:48:53;;;;;;;1999.90;999.90;;;24.10;99.80;;;;;;5012664;28;20411;-66
2022/08/17 00:51:31;;;;;;;1999.90;999.90;;;24.10;99.90;;;;;;5012611;28;20407;-67
2022/08/17 00:54:19;;;;;;;1999.90;999.90;;;24.00;99.90;;;;;;5012570;28;20404;-67
2022/08/17 00:56:50;;;;;;;1999.90;999.90;;;24.00;99.90;;;;;;5002938;28;20451;-67
2022/08/17 00:59:20;;;;;;;1999.90;999.90;;;23.90;99.90;;;;;;5012697;28;20924;-66
2022/08/17 01:01:49;;;;;;;1999.90;999.90;;;23.80;99.90;;;;;;5012489;28;20936;-66
2022/08/17 01:04:18;;;;;;;1999.90;999.90;;;23.80;99.90;;;;;;5012627;28;20423;-66
2022/08/17 01:06:47;;;;;;;1999.90;999.90;;;23.80;99.90;;;;;;5012060;28;20420;-66
2022/08/17 01:09:14;;;;;;;1999.90;999.90;;;23.80;99.90;;;;;;5012354;28;20450;-67
2022/08/17 01:11:40;;;;;;;1999.90;999.90;;;23.70;99.90;;;;;;5012377;28;20408;-67
2022/08/17 01:14:07;;;;;;;1999.90;999.90;;;23.70;99.90;;;;;;5012311;28;20447;-66
2022/08/17 01:16:33;;;;;;;1999.90;999.90;;;23.70;99.90;;;;;;5011755;28;20287;-67
2022/08/17 01:19:04;;;;;;;1999.90;999.90;;;23.60;99.90;;;;;;5012317;28;20412;-67
2022/08/17 01:21:46;;;;;;;1999.90;999.90;;;23.50;99.90;;;;;;5012059;28;20463;-66
2022/08/17 01:24:12;;;;;;;1999.90;999.90;;;23.40;99.90;;;;;;5012339;28;20481;-66
2022/08/17 01:26:39;;;;;;;1999.90;999.90;;;23.30;99.90;;;;;;5011839;28;20420;-65
2022/08/17 01:29:05;;;;;;;1999.90;999.90;;;23.30;99.90;;;;;;5012125;28;20157;-65
2022/08/17 01:31:44;;;;;;;1999.90;999.90;;;23.20;99.90;;;;;;5012179;28;20400;-66
2022/08/17 01:34:12;;;;;;;1999.90;999.90;;;23.20;99.90;;;;;;5012123;28;20953;-66
2022/08/17 01:36:40;;;;;;;1999.90;999.90;;;23.20;99.90;;;;;;5011812;28;20447;-66
2022/08/17 01:39:11;;;;;;;1999.90;999.90;;;23.10;99.90;;;;;;5011998;28;20379;-66
2022/08/17 01:41:39;;;;;;;1999.90;999.90;;;23.10;99.90;;;;;;5012074;28;20478;-66
2022/08/17 01:44:06;;;;;;;1999.90;999.90;;;23.10;99.90;;;;;;5012267;28;20861;-66
2022/08/17 01:46:34;;;;;;;1999.90;999.90;;;23.10;99.90;;;;;;5011635;28;20406;-65
2022/08/17 01:49:05;;;;;;;1999.90;999.90;;;23.00;99.90;;;;;;5011969;28;20489;-66
2022/08/17 01:51:32;;;;;;;1999.90;999.90;;;23.00;99.90;;;;;;5012171;28;20404;-66
2022/08/17 01:54:03;;;;;;;1999.90;999.90;;;23.00;99.90;;;;;;5011882;28;20457;-66
2022/08/17 01:56:31;;;;;;;1999.90;999.90;;;22.90;99.90;;;;;;5011775;28;20397;-66
2022/08/17 01:58:57;;;;;;;1999.90;999.90;;;22.80;99.90;;;;;;5011919;28;20415;-65
2022/08/17 02:01:26;;;;;;;1999.90;999.90;;;22.80;99.90;;;;;;5011835;28;20447;-66
2022/08/17 02:03:53;;;;;;;1999.90;999.90;;;22.80;99.90;;;;;;5011726;28;20416;-65
2022/08/17 02:06:19;;;;;;;1999.90;999.90;;;22.70;99.90;;;;;;5011526;28;20412;-66
2022/08/17 02:08:45;;;;;;;1999.90;999.90;;;22.60;99.90;;;;;;5011759;28;20377;-66
2022/08/17 02:11:15;;;;;;;1999.90;999.90;;;22.60;99.90;;;;;;5011779;28;20436;-65
2022/08/17 02:13:43;;;;;;;1999.90;999.90;;;22.60;99.90;;;;;;5011842;28;20422;-65
2022/08/17 02:16:08;;;;;;;1999.90;999.90;;;22.60;99.90;;;;;;5011505;28;20817;-66
2022/08/17 02:18:34;;;;;;;1999.90;999.90;;;22.60;99.90;;;;;;5011478;28;20440;-66
2022/08/17 02:20:59;;;;;;;1999.90;999.90;;;22.60;99.90;;;;;;5011553;28;20200;-66
2022/08/17 02:23:29;;;;;;;1999.90;999.90;;;22.60;99.90;;;;;;5011686;28;20230;-65
2022/08/17 02:25:57;;;;;;;1999.90;999.90;;;22.40;99.90;;;;;;5011614;28;20248;-66
2022/08/17 02:28:23;;;;;;;1999.90;999.90;;;22.30;99.90;;;;;;5011649;28;20402;-66
2022/08/17 02:30:49;;;;;;;1999.90;999.90;;;22.30;99.90;;;;;;5011625;28;20415;-65
2022/08/17 02:33:15;;;;;;;1999.90;999.90;;;22.20;99.90;;;;;;5013473;28;20761;-66
2022/08/17 02:35:41;;;;;;;1999.90;999.90;;;22.10;99.90;;;;;;5015084;28;20266;-65
2022/08/17 02:38:08;;;;;;;1999.90;999.90;;;22.00;99.90;;;;;;5014696;28;20417;-66
2022/08/17 02:40:34;;;;;;;1999.90;999.90;;;21.90;99.90;;;;;;5014902;28;20429;-66
2022/08/17 02:42:59;;;;;;;1999.90;999.90;;;21.80;99.90;;;;;;5015005;28;20385;-66
2022/08/17 02:45:25;;;;;;;1999.90;999.90;;;21.80;99.90;;;;;;5014967;28;20381;-65
2022/08/17 02:47:51;;;;;;;1999.90;999.90;;;21.80;99.90;;;;;;5014543;28;20196;-66
2022/08/17 02:50:20;;;;;;;1999.90;999.90;;;21.80;99.90;;;;;;5014797;28;20383;-65
2022/08/17 02:52:47;;;;;;;1999.90;999.90;;;21.70;99.90;;;;;;5014783;28;20473;-65
2022/08/17 02:55:36;;;;;;;1999.90;999.90;;;21.50;99.90;;;;;;5014669;28;20407;-65
2022/08/17 02:58:02;;;;;;;1999.90;999.90;;;21.40;99.90;;;;;;5018977;28;20496;-66
2022/08/17 03:00:35;;;;;;;1999.90;999.90;;;21.40;99.90;;;;;;5020730;28;20457;-67
2022/08/17 03:03:04;;;;;;;1999.90;999.90;;;21.40;99.90;;;;;;5020603;28;20490;-66
2022/08/17 03:05:32;;;;;;;1999.90;999.90;;;21.40;99.90;;;;;;5020837;28;20382;-66
2022/08/17 03:07:58;;;;;;;1999.90;999.90;;;21.40;99.90;;;;;;5019394;28;20480;-66
2022/08/17 03:10:24;;;;;;;1999.90;999.90;;;21.40;99.90;;;;;;5014425;28;20808;-66
2022/08/17 03:12:51;;;;;;;1999.90;999.90;;;21.40;99.90;;;;;;5014474;28;20200;-66
2022/08/17 03:15:20;;;;;;;1999.90;999.90;;;21.40;99.90;;;;;;5014321;28;20396;-66
2022/08/17 03:17:46;;;;;;;1999.90;999.90;;;21.40;99.90;;;;;;5013827;28;20433;-65
2022/08/17 03:20:14;;;;;;;1999.90;999.90;;;21.40;99.90;;;;;;5014139;28;20977;-66
2022/08/17 03:22:45;;;;;;;1999.90;999.90;;;21.40;99.90;;;;;;5014174;28;20724;-66
2022/08/17 03:25:14;;;;;;;1999.90;999.90;;;21.40;99.90;;;;;;5014210;28;20515;-65
2022/08/17 03:27:40;;;;;;;1999.90;999.90;;;21.40;99.90;;;;;;5013044;28;20402;-67
2022/08/17 03:30:07;;;;;;;1999.90;999.90;;;21.30;99.90;;;;;;5014080;28;20419;-65
2022/08/17 03:32:41;;;;;;;1999.90;999.90;;;21.30;99.90;;;;;;5014014;28;20183;-66
2022/08/17 03:35:08;;;;;;;1999.90;999.90;;;21.30;99.90;;;;;;5013963;28;20397;-66
2022/08/17 03:37:33;;;;;;;1999.90;999.90;;;21.30;99.90;;;;;;5013615;28;20417;-66
2022/08/17 03:40:00;;;;;;;1999.90;999.90;;;21.20;99.90;;;;;;5013960;28;20451;-66
2022/08/17 03:42:26;;;;;;;1999.90;999.90;;;21.30;99.90;;;;;;5013895;28;20535;-66
2022/08/17 03:44:54;;;;;;;1999.90;999.90;;;21.30;99.90;;;;;;5013882;28;21017;-66
2022/08/17 03:58:20;;;;;;;1999.90;999.90;;;21.30;99.90;;;;;;5013384;28;20430;-66
2022/08/17 04:00:47;;;;;;;1999.90;999.90;;;21.10;99.90;;;;;;5013422;28;20439;-65
2022/08/17 04:03:13;;;;;;;1999.90;999.90;;;21.20;99.90;;;;;;5013380;28;20415;-66
2022/08/17 04:05:38;;;;;;;1999.90;999.90;;;21.30;99.90;;;;;;5013413;28;20421;-66
2022/08/17 04:08:05;;;;;;;1999.90;999.90;;;21.30;99.90;;;;;;5013096;28;20431;-66
2022/08/17 04:10:30;;;;;;;1999.90;999.90;;;21.30;99.90;;;;;;5013471;28;20331;-65
2022/08/17 04:13:00;;;;;;;1999.90;999.90;;;21.40;99.90;;;;;;5013307;28;20477;-66
2022/08/17 04:15:26;;;;;;;1999.90;999.90;;;21.40;99.90;;;;;;5013186;28;20170;-65
2022/08/17 04:17:52;;;;;;;1999.90;999.90;;;21.50;99.90;;;;;;5043134;22;20880;-70
2022/08/17 04:20:20;;;;;;;1999.90;999.90;;;21.40;99.90;;;;;;4993586;28;20822;-70
2022/08/17 04:23:08;;;;;;;1999.90;999.90;;;21.40;99.90;;;;;;4993534;28;20408;-70
2022/08/17 04:25:36;;;;;;;1999.90;999.90;;;21.40;99.90;;;;;;4995935;28;20378;-72
2022/08/17 04:28:04;;;;;;;1999.90;999.90;;;21.40;99.90;;;;;;5002001;28;20437;-72
2022/08/17 04:30:32;;;;;;;1999.90;999.90;;;21.40;99.90;;;;;;5001142;28;20400;-71
2022/08/17 04:33:04;;;;;;;1999.90;999.90;;;21.50;99.90;;;;;;5003352;28;20394;-71
2022/08/17 04:35:33;;;;;;;1999.90;999.90;;;21.50;99.90;;;;;;5002455;28;20424;-72
2022/08/17 04:37:59;;;;;;;1999.90;999.90;;;21.60;99.90;;;;;;5003236;28;20418;-72
2022/08/17 04:43:12;;;;;;;1999.90;999.90;;;21.60;99.90;;;;;;5003654;28;20235;-72
2022/08/17 04:45:44;;;;;;;1999.90;999.90;;;21.70;99.90;;;;;;5003461;28;20418;-72
2022/08/17 04:48:09;;;;;;;1999.90;999.90;;;21.70;99.90;;;;;;5000760;28;20516;-72
2022/08/17 04:50:38;;;;;;;1999.90;999.90;;;21.70;99.90;;;;;;5000329;28;20824;-72
2022/08/17 04:53:04;;;;;;;1999.90;999.90;;;21.70;99.90;;;;;;4994492;28;20231;-71
2022/08/17 04:55:30;;;;;;;1999.90;999.90;;;21.70;99.90;;;;;;4992464;28;20395;-72
2022/08/17 04:57:55;;;;;;;1999.90;999.90;;;21.70;99.90;;;;;;4992874;28;20279;-71
2022/08/17 05:00:24;;;;;;;1999.90;999.90;;;21.80;99.90;;;;;;4992784;28;20434;-71
2022/08/17 05:02:51;;;;;;;1999.90;999.90;;;21.70;99.90;;;;;;4992961;28;20169;-72
2022/08/17 05:05:30;;;;;;;1999.90;999.90;;;21.80;99.90;;;;;;4992938;28;20791;-71
2022/08/17 05:07:57;;;;;;;1999.90;999.90;;;21.80;99.90;;;;;;4992469;28;20435;-71
2022/08/17 05:10:24;;;;;;;1999.90;999.90;;;21.80;99.90;;;;;;4992792;28;20439;-72
2022/08/17 05:13:06;;;;;;;1999.90;999.90;;;21.80;99.90;;;;;;4992812;28;20453;-72
2022/08/17 05:15:33;;;;;;;1999.90;999.90;;;21.50;99.90;;;;;;4992801;28;20802;-71
2022/08/17 05:17:58;;;;;;;1999.90;999.90;;;21.30;99.90;;;;;;4992229;28;20462;-72
2022/08/17 05:20:24;;;;;;;1999.90;999.90;;;21.10;99.90;;;;;;4992545;28;20449;-72
2022/08/17 05:22:58;;;;;;;1999.90;999.90;;;21.00;99.90;;;;;;5001606;28;20183;-71
2022/08/17 05:25:27;;;;;;;1999.90;999.90;;;20.90;99.90;;;;;;5009661;28;20416;-72
2022/08/17 05:27:54;;;;;;;1999.90;999.90;;;20.90;99.90;;;;;;5009884;28;20431;-71
2022/08/17 05:30:21;;;;;;;1999.90;999.90;;;20.90;99.90;;;;;;5012507;28;20410;-73
2022/08/17 05:33:09;;;;;;;1999.90;999.90;;;21.00;99.90;;;;;;5010957;28;20415;-71
2022/08/17 05:35:37;;;;;;;1999.90;999.90;;;21.00;99.90;;;;;;5011252;28;20385;-72
2022/08/17 05:38:03;;;;;;;1999.90;999.90;;;20.90;99.90;;;;;;5011053;28;21028;-72
2022/08/17 05:40:29;;;;;;;1999.90;999.90;;;21.00;99.90;;;;;;5011684;28;20488;-72
2022/08/17 05:43:16;;;;;;;1999.90;999.90;;;21.10;99.90;;;;;;5008075;28;20444;-71
2022/08/17 05:46:13;;;;;;;1999.90;999.90;;;21.30;99.90;;;;;;4992411;28;20456;-72
2022/08/17 05:48:49;;;;;;;1999.90;999.90;;;21.40;99.90;;;;;;4977384;28;20439;-71
2022/08/17 05:51:18;;;;;;;1999.90;999.90;;;21.60;99.90;;;;;;4991686;28;20429;-71
2022/08/17 05:53:46;;;;;;;1999.90;999.90;;;21.70;99.90;;;;;;4992318;28;20394;-71
2022/08/17 05:56:35;;;;;;;1999.90;999.90;;;21.80;99.90;;;;;;4992129;28;20469;-71
2022/08/17 05:59:10;;;;;;;1999.90;999.90;;;22.00;99.90;;;;;;4971439;28;20742;-71
2022/08/17 06:01:41;;;;;;;1999.90;999.90;;;22.10;99.90;;;;;;4992277;28;20464;-72
2022/08/17 06:04:15;;;;;;;1999.90;999.90;;;22.20;99.90;;;;;;4992146;28;20379;-71
2022/08/17 06:06:56;;;;;;;1999.90;999.90;;;22.30;99.90;;;;;;4991949;28;20819;-71
2022/08/17 06:09:44;;;;;;;1999.90;999.90;;;22.40;99.90;;;;;;4996082;28;20470;-71
2022/08/17 06:12:43;;;;;;;1999.90;999.90;;;22.50;99.90;;;;;;4995982;28;20383;-71
2022/08/17 06:15:25;;;;;;;1999.90;999.90;;;22.60;99.90;;;;;;4996008;28;20430;-72
2022/08/17 06:17:56;;;;;;;1999.90;999.90;;;22.70;99.90;;;;;;4995444;28;20416;-71
2022/08/17 06:20:24;;;;;;;1999.90;999.90;;;22.80;99.90;;;;;;4995836;28;20527;-72
2022/08/17 06:22:55;;;;;;;1999.90;999.90;;;22.90;99.90;;;;;;5015242;28;20423;-72
2022/08/17 06:25:24;;;;;;;1999.90;999.90;;;22.90;99.90;;;;;;5015192;28;20402;-72
2022/08/17 06:27:57;;;;;;;1999.90;999.90;;;22.90;99.90;;;;;;5015623;28;20434;-72
2022/08/17 06:30:26;;;;;;;1999.90;999.90;;;22.90;99.90;;;;;;5015933;28;20419;-71
2022/08/17 06:32:58;;;;;;;1999.90;999.90;;;23.00;99.90;;;;;;5015769;28;20405;-72
2022/08/17 06:35:45;;;;;;;1999.90;999.90;;;23.20;99.90;;;;;;5013700;28;20452;-72
2022/08/17 06:38:32;;;;;;;1999.90;999.90;;;23.20;99.90;;;;;;5015349;28;20407;-72
2022/08/17 06:41:31;;;;;;;1999.90;999.90;;;23.30;99.90;;;;;;5015401;28;20483;-71
2022/08/17 06:44:05;;;;;;;1999.90;999.90;;;23.40;99.90;;;;;;5016257;28;20442;-72
2022/08/17 06:46:37;;;;;;;1999.90;999.90;;;23.50;99.90;;;;;;5015107;28;20404;-72
2022/08/17 06:49:32;;;;;;;1999.90;999.90;;;23.50;99.90;;;;;;5015707;28;20375;-71
2022/08/17 06:52:11;;;;;;;1999.90;999.90;;;23.60;99.90;;;;;;5014306;28;20444;-72
2022/08/17 06:54:58;;;;;;;1999.90;999.90;;;23.70;99.90;;;;;;5005113;28;20411;-72
2022/08/17 06:57:30;;;;;;;1999.90;999.90;;;23.80;99.90;;;;;;4994655;28;20398;-72
2022/08/17 07:00:37;;;;;;;1999.90;999.90;;;23.80;99.90;;;;;;4995152;28;20980;-72
2022/08/17 07:03:09;;;;;;;1999.90;999.90;;;24.00;99.90;;;;;;4954069;29;20447;-71
2022/08/17 07:06:02;;;;;;;1999.90;999.90;;;24.10;99.90;;;;;;4989793;28;20910;-71
2022/08/17 07:08:32;;;;;;;1999.90;999.90;;;24.00;99.90;;;;;;4994894;28;20423;-71
2022/08/17 07:11:02;;;;;;;1999.90;999.90;;;24.10;99.90;;;;;;4994752;28;20749;-71
2022/08/17 07:13:30;;;;;;;1999.90;999.90;;;24.00;99.90;;;;;;4994848;28;20387;-72
2022/08/17 07:16:09;;;;;;;1999.90;999.90;;;24.00;99.90;;;;;;4994760;28;20436;-71
2022/08/17 07:18:36;;;;;;;1999.90;999.90;;;24.10;99.90;;;;;;4994204;28;20527;-72
2022/08/17 07:21:20;;;;;;;1999.90;999.90;;;24.10;99.90;;;;;;4994758;28;20486;-72
2022/08/17 07:24:26;;;;;;;1999.90;999.90;;;24.00;99.90;;;;;;4994666;28;20775;-72
2022/08/17 07:27:14;;;;;;;1999.90;999.90;;;23.90;99.90;;;;;;4971782;28;20487;-71
2022/08/17 07:29:48;;;;;;;1999.90;999.90;;;23.90;99.90;;;;;;4994569;28;20913;-71
2022/08/17 07:32:17;;;;;;;1999.90;999.90;;;23.80;99.90;;;;;;4994516;28;20396;-72
2022/08/17 07:35:07;;;;;;;1999.90;999.90;;;23.80;99.90;;;;;;4994492;28;20386;-71
2022/08/17 07:37:35;;;;;;;1999.90;999.90;;;23.60;99.90;;;;;;4994075;28;20417;-71
2022/08/17 07:40:19;;;;;;;1999.90;999.90;;;23.60;99.90;;;;;;4994215;28;20456;-71
2022/08/17 07:43:19;;;;;;;1999.90;999.90;;;23.80;99.90;;;;;;4994268;28;20910;-71
2022/08/17 07:49:14;;;;;;;1999.90;999.90;;;23.70;99.90;;;;;;4994513;28;20466;-71
2022/08/17 07:51:43;;;;;;;1999.90;999.90;;;23.90;99.90;;;;;;4994135;28;20816;-71
2022/08/17 07:54:14;;;;;;;1999.90;999.90;;;23.90;99.90;;;;;;4994171;28;20662;-71
2022/08/17 07:56:53;;;;;;;1999.90;999.90;;;23.90;99.90;;;;;;4993604;28;20406;-72
2022/08/17 07:59:23;;;;;;;1999.90;999.90;;;23.80;99.90;;;;;;4994040;28;20406;-71
2022/08/17 08:02:04;;;;;;;1999.90;999.90;;;23.80;99.90;;;;;;4993936;28;20513;-71
2022/08/17 08:04:38;;;;;;;1999.90;999.90;;;23.70;99.90;;;;;;4993772;28;20378;-72
2022/08/17 08:07:10;;;;;;;1999.90;999.90;;;23.60;99.90;;;;;;4993566;28;20441;-71
2022/08/17 08:10:04;;;;;;;1999.90;999.90;;;23.40;99.90;;;;;;4993675;28;20405;-70
2022/08/17 08:12:35;;;;;;;1999.90;999.90;;;23.40;99.90;;;;;;4993300;28;20902;-71
2022/08/17 08:15:22;;;;;;;1999.90;999.90;;;23.50;99.90;;;;;;4993713;28;20778;-71
2022/08/17 08:17:55;;;;;;;1999.90;999.90;;;23.40;99.90;;;;;;4993160;28;20945;-71
2022/08/17 08:20:41;;;;;;;1999.90;999.90;;;23.40;99.90;;;;;;4993528;28;20481;-71
2022/08/17 08:23:50;;;;;;;1999.90;999.90;;;23.40;99.90;;;;;;4993312;28;20444;-70
2022/08/17 08:26:43;;;;;;;1999.90;999.90;;;23.30;99.90;;;;;;4993230;28;20384;-71
2022/08/17 08:29:32;;;;;;;1999.90;999.90;;;23.30;99.90;;;;;;4993509;28;20489;-71
2022/08/17 08:32:04;;;;;;;1999.90;999.90;;;23.30;99.90;;;;;;4993020;28;20404;-71
2022/08/17 08:34:35;;;;;;;1999.90;999.90;;;23.30;99.90;;;;;;4993280;28;20411;-72
2022/08/17 08:37:13;;;;;;;1999.90;999.90;;;23.20;99.90;;;;;;4994624;28;20397;-72
2022/08/17 08:40:20;;;;;;;1999.90;999.90;;;23.20;99.90;;;;;;4997543;28;20800;-72
2022/08/17 08:43:02;;;;;;;1999.90;999.90;;;23.20;99.90;;;;;;4999429;28;20463;-71
2022/08/17 08:45:56;;;;;;;1999.90;999.90;;;23.30;99.90;;;;;;5001294;28;20821;-72
2022/08/17 08:48:25;;;;;;;1999.90;999.90;;;23.50;99.90;;;;;;4998126;28;20421;-72
2022/08/17 08:50:57;;;;;;;1999.90;999.90;;;23.70;99.90;;;;;;4997330;28;20451;-72
2022/08/17 08:53:48;;;;;;;1999.90;999.90;;;23.70;99.90;;;;;;4998473;28;20414;-72
2022/08/17 08:56:43;;;;;;;1999.90;999.90;;;23.70;99.90;;;;;;4998458;28;20792;-72
2022/08/17 08:59:42;;;;;;;1999.90;999.90;;;23.60;99.90;;;;;;4994855;28;20415;-72
2022/08/17 09:02:21;;;;;;;1999.90;999.90;;;23.60;99.90;;;;;;4999319;28;20383;-72
2022/08/17 09:04:53;;;;;;;1999.90;999.90;;;23.60;99.90;;;;;;4999992;28;21220;-72
2022/08/17 09:07:49;;;;;;;1999.90;999.90;;;23.60;99.90;;;;;;5001219;28;20388;-72
2022/08/17 09:10:28;;;;;;;1999.90;999.90;;;23.60;99.90;;;;;;4998592;28;20433;-72
2022/08/17 09:13:34;;;;;;;1999.90;999.90;;;23.60;99.90;;;;;;4999607;28;20379;-72
2022/08/17 09:16:08;;;;;;;1999.90;999.90;;;23.70;99.90;;;;;;4998075;28;20449;-72
2022/08/17 09:18:38;;;;;;;1999.90;999.90;;;23.80;99.90;;;;;;4998326;28;20430;-72
2022/08/17 09:21:20;;;;;;;1999.90;999.90;;;23.70;99.90;;;;;;5000622;28;20491;-72
2022/08/17 09:23:58;;;;;;;1999.90;999.90;;;23.70;99.90;;;;;;5002491;28;20422;-72
2022/08/17 09:26:38;;;;;;;1999.90;999.90;;;23.60;99.90;;;;;;4990000;28;20405;-73
2022/08/17 09:29:09;;;;;;;1999.90;999.90;;;23.60;99.90;;;;;;4991461;28;20375;-73
2022/08/17 09:31:48;;;;;;;1999.90;999.90;;;23.40;99.90;;;;;;4991462;28;20492;-72
2022/08/17 09:34:17;;;;;;;1999.90;999.90;;;23.40;99.90;;;;;;4992176;28;20981;-71
2022/08/17 09:36:51;;;;;;;1999.90;999.90;;;23.30;99.90;;;;;;4990870;28;20390;-72
2022/08/17 09:39:31;;;;;;;1999.90;999.90;;;23.30;99.90;;;;;;4995091;28;20405;-72
2022/08/17 09:42:37;;;;;;;1999.90;999.90;;;23.30;99.90;;;;;;4994088;28;20893;-73
2022/08/17 09:45:14;;;;;;;1999.90;999.90;;;23.10;99.90;;;;;;4993441;28;20399;-73
2022/08/17 09:47:47;;;;;;;1999.90;999.90;;;22.90;99.90;;;;;;4995569;28;20409;-70
2022/08/17 09:50:35;;;;;;;1999.90;999.90;;;22.50;99.90;;;;;;4996206;28;20499;-68
2022/08/17 09:53:01;;;;;;;1999.90;999.90;;;22.20;99.90;;;;;;4998111;28;20373;-68
2022/08/17 09:55:48;;;;;;;1999.90;999.90;;;21.90;99.90;;;;;;5003494;28;20796;-68
2022/08/17 09:58:20;;;;;;;1999.90;999.90;;;21.50;99.90;;;;;;5018957;28;20449;-68
2022/08/17 10:01:00;;;;;;;1999.90;999.90;;;21.10;99.90;;;;;;5021268;28;20446;-68
2022/08/17 10:03:47;;;;;;;1999.90;999.90;;;20.90;99.90;;;;;;5022393;28;20925;-68
2022/08/17 10:06:26;;;;;;;1999.90;999.90;;;20.80;99.90;;;;;;5021275;28;20505;-69
2022/08/17 10:08:56;;;;;;;1999.90;999.90;;;20.70;99.90;;;;;;5145707;22;20480;-68
2022/08/17 10:11:22;;;;;;;1999.90;999.90;;;20.60;99.90;;;;;;4998190;28;20420;-71
2022/08/17 10:14:00;;;;;;;1999.90;999.90;;;20.50;99.90;;;;;;4996687;28;20891;-71
2022/08/17 10:16:48;;;;;;;1999.90;999.90;;;20.60;99.90;;;;;;4998584;28;20261;-71
2022/08/17 10:19:17;;;;;;;1999.90;999.90;;;20.60;99.90;;;;;;4980091;28;20391;-70
2022/08/17 10:27:25;;;;;;;1999.90;999.90;;;20.60;99.90;;;;;;5033881;28;20462;-65
2022/08/17 10:30:03;;;;;;;1999.90;999.90;;;20.50;99.90;;;;;;5034415;28;20375;-65
2022/08/17 10:32:37;;;;;;;1999.90;999.90;;;20.60;99.90;;;;;;5034440;28;20386;-66
2022/08/17 10:35:12;;;;;;;1999.90;999.90;;;20.70;99.90;;;;;;5033751;28;20403;-66
2022/08/17 10:37:55;;;;;;;1999.90;999.90;;;20.80;99.90;;;;;;5033673;28;20454;-66
2022/08/17 10:40:45;;;;;;;1999.90;999.90;;;20.90;99.90;;;;;;5034140;28;20423;-66
2022/08/17 10:43:38;;;;;;;1999.90;999.90;;;21.00;99.90;;;;;;5033768;28;20458;-66
2022/08/17 10:46:18;;;;;;;1999.90;999.90;;;21.10;99.90;;;;;;5033712;28;20396;-66
2022/08/17 10:48:44;;;;;;;1999.90;999.90;;;21.30;99.90;;;;;;5033607;28;20398;-66
2022/08/17 10:51:34;;;;;;;1999.90;999.90;;;21.50;99.90;;;;;;5034056;28;20376;-66
2022/08/17 10:54:00;;;;;;;1999.90;999.90;;;21.60;99.90;;;;;;5032949;28;20167;-66
2022/08/17 10:56:49;;;;;;;1999.90;999.90;;;21.70;99.90;;;;;;5033342;28;20402;-65
2022/08/17 10:59:33;;;;;;;1999.90;999.90;;;21.80;99.90;;;;;;5033604;28;20410;-66
2022/08/17 11:02:11;;;;;;;1999.90;999.90;;;21.80;99.90;;;;;;5033738;28;20914;-65
2022/08/17 11:05:10;;;;;;;1999.90;999.90;;;21.90;99.90;;;;;;5033470;28;20418;-65
2022/08/17 11:07:58;;;;;;;1999.90;999.90;;;22.20;99.90;;;;;;5033491;28;20743;-66
2022/08/17 11:10:32;;;;;;;1999.90;999.90;;;22.60;99.90;;;;;;5033572;28;20501;-66
2022/08/17 11:13:28;;;;;;;1999.90;999.90;;;22.70;99.90;;;;;;5033220;28;20366;-66
2022/08/17 11:16:10;;;;;;;1999.90;999.90;;;22.80;99.90;;;;;;5033371;28;20422;-66
2022/08/17 11:18:41;;;;;;;1999.90;999.90;;;22.70;99.90;;;;;;5032734;28;20384;-67
2022/08/17 11:21:38;;;;;;;1999.90;999.90;;;22.80;99.90;;;;;;5033397;28;20977;-65
2022/08/17 11:24:12;;;;;;;1999.90;999.90;;;22.80;99.90;;;;;;5033433;28;20410;-65
2022/08/17 11:26:46;;;;;;;1999.90;999.90;;;22.80;99.90;;;;;;5032598;28;20389;-65
2022/08/17 11:29:22;;;;;;;1999.90;999.90;;;22.90;99.90;;;;;;5033205;28;20384;-66
2022/08/17 11:32:29;;;;;;;1999.90;999.90;;;23.00;99.90;;;;;;5033398;28;20369;-66
2022/08/17 11:35:10;;;;;;;1999.90;999.90;;;23.10;99.90;;;;;;4993537;28;20413;-66
2022/08/17 11:38:11;;;;;;;1999.90;999.90;;;23.10;99.90;;;;;;5032674;28;20810;-66
2022/08/17 11:41:02;;;;;;;1999.90;999.90;;;23.20;99.90;;;;;;5028606;28;20458;-66
2022/08/17 11:43:33;;;;;;;1999.90;999.90;;;23.40;99.90;;;;;;5033078;28;20408;-66
2022/08/17 11:46:02;;;;;;;1999.90;999.90;;;23.60;99.90;;;;;;5032638;28;20492;-67
2022/08/17 11:52:03;;;;;;;1999.90;999.90;;;23.90;99.90;;;;;;5033121;28;20425;-66
2022/08/17 11:54:29;;;;;;;1999.90;999.90;;;24.10;99.90;;;;;;5032793;28;20782;-67
2022/08/17 11:56:57;;;;;;;1999.90;999.90;;;24.30;99.90;;;;;;5032029;28;20395;-67
2022/08/17 11:59:32;;;;;;;1999.90;999.90;;;24.40;99.90;;;;;;5032461;28;20183;-66
2022/08/17 12:01:59;;;;;;;1999.90;999.90;;;24.50;99.90;;;;;;5032655;28;20408;-68
2022/08/17 12:04:30;;;;;;;1999.90;999.90;;;24.80;99.90;;;;;;5031880;28;20377;-68
2022/08/17 12:07:09;;;;;;;1999.90;999.90;;;25.30;99.90;;;;;;5032200;28;21558;-68
2022/08/17 12:09:42;;;;;;;1999.90;999.90;;;26.00;99.90;;;;;;5032478;28;20415;-68
2022/08/17 12:12:31;;;;;;;1999.90;999.90;;;26.50;99.90;;;;;;5032027;28;20782;-68
2022/08/17 12:14:58;;;;;;;1999.90;999.90;;;26.80;99.90;;;;;;5032263;28;20530;-67
2022/08/17 12:17:30;;;;;;;1999.90;999.90;;;26.70;99.90;;;;;;5031668;28;20410;-67
2022/08/17 12:20:10;;;;;;;1999.90;999.90;;;26.60;99.90;;;;;;5031963;28;20971;-67
2022/08/17 12:23:03;;;;;;;1999.90;999.90;;;26.30;99.90;;;;;;5032353;28;20751;-68
2022/08/17 12:25:36;;;;;;;1999.90;999.90;;;25.90;99.90;;;;;;5031461;28;20446;-67
2022/08/17 12:28:02;;;;;;;1999.90;999.90;;;25.60;99.90;;;;;;5031990;28;20403;-67
2022/08/17 12:30:28;;;;;;;1999.90;999.90;;;25.40;99.90;;;;;;5032122;28;21015;-68
2022/08/17 12:32:54;;;;;;;1999.90;999.90;;;25.50;99.90;;;;;;5031567;28;20410;-66
2022/08/17 12:35:28;;;;;;;1999.90;999.90;;;26.10;99.90;;;;;;5031915;28;20200;-67
2022/08/17 12:37:56;;;;;;;1999.90;999.90;;;26.50;99.90;;;;;;5031420;28;20178;-68
2022/08/17 12:40:28;;;;;;;1999.90;999.90;;;26.80;99.90;;;;;;5031402;28;20982;-68
2022/08/17 12:43:07;;;;;;;1999.90;999.90;;;27.10;99.90;;;;;;5032037;28;20798;-67
2022/08/17 12:45:38;;;;;;;1999.90;999.90;;;27.60;99.90;;;;;;5031895;28;20450;-68
2022/08/17 12:48:06;;;;;;;1999.90;999.90;;;27.90;99.90;;;;;;5031355;28;20904;-67
2022/08/17 12:50:33;;;;;;;1999.90;999.90;;;27.90;99.90;;;;;;5031589;28;20765;-67
2022/08/17 12:52:59;;;;;;;1999.90;999.90;;;28.00;99.90;;;;;;5031772;28;20977;-67
2022/08/17 12:55:25;;;;;;;1999.90;999.90;;;27.90;99.90;;;;;;5031124;28;20431;-67
2022/08/17 12:57:53;;;;;;;1999.90;999.90;;;28.00;99.90;;;;;;5031354;28;20176;-67
2022/08/17 13:00:24;;;;;;;1999.90;999.90;;;28.50;99.90;;;;;;5031441;28;20211;-67